sensor_id;sensor_type;location;lat;lon;timestamp;temperature;humidity
15178;DHT22;7689;53.612;-2.416;2023-02-05T00:00:13;4.20;99.90
15178;DHT22;7689;53.612;-2.416;2023-02-05T00:02:39;4.10;99.90
15178;DHT22;7689;53.612;-2.416;2023-02-05T00:05:05;4.00;99.90
15178;DHT22;7689;53.612;-2.416;2023-02-05T00:07:30;4.00;99.90
15178;DHT22;7689;53.612;-2.416;2023-02-05T00:09:56;4.10;99.90
15178;DHT22;7689;53.612;-2.416;2023-02-05T00:12:21;4.10;99.90
15178;DHT22;7689;53.612;-2.416;2023-02-05T00:14:47;4.10;99.90
15178;DHT22;7689;53.612;-2.416;2023-02-05T00:17:12;4.10;99.90
15178;DHT22;7689;53.612;-2.416;2023-02-05T00:19:38;4.00;99.90
15178;DHT22;7689;53.612;-2.416;2023-02-05T00:22:03;4.00;99.90
15178;DHT22;7689;53.612;-2.416;2023-02-05T00:24:29;3.90;99.90
15178;DHT22;7689;53.612;-2.416;2023-02-05T00:26:54;3.90;99.90
15178;DHT22;7689;53.612;-2.416;2023-02-05T00:29:20;3.80;99.90
15178;DHT22;7689;53.612;-2.416;2023-02-05T00:31:45;3.80;99.90
15178;DHT22;7689;53.612;-2.416;2023-02-05T00:34:14;3.70;99.90
15178;DHT22;7689;53.612;-2.416;2023-02-05T00:36:40;3.70;99.90
15178;DHT22;7689;53.612;-2.416;2023-02-05T00:39:05;3.60;99.90
15178;DHT22;7689;53.612;-2.416;2023-02-05T00:41:33;3.70;99.90
15178;DHT22;7689;53.612;-2.416;2023-02-05T00:43:59;3.60;99.90
15178;DHT22;7689;53.612;-2.416;2023-02-05T00:46:24;3.60;99.90
15178;DHT22;7689;53.612;-2.416;2023-02-05T00:48:50;3.60;99.90
15178;DHT22;7689;53.612;-2.416;2023-02-05T00:51:15;3.60;99.90
15178;DHT22;7689;53.612;-2.416;2023-02-05T00:53:41;3.60;99.90
15178;DHT22;7689;53.612;-2.416;2023-02-05T00:56:06;3.50;99.90
15178;DHT22;7689;53.612;-2.416;2023-02-05T00:58:32;3.50;99.90
15178;DHT22;7689;53.612;-2.416;2023-02-05T01:00:57;3.50;99.90
15178;DHT22;7689;53.612;-2.416;2023-02-05T01:03:23;3.50;99.90
15178;DHT22;7689;53.612;-2.416;2023-02-05T01:05:48;3.50;99.90
15178;DHT22;7689;53.612;-2.416;2023-02-05T01:08:14;3.50;99.90
15178;DHT22;7689;53.612;-2.416;2023-02-05T01:10:43;3.40;99.90
15178;DHT22;7689;53.612;-2.416;2023-02-05T01:13:09;3.40;99.90
15178;DHT22;7689;53.612;-2.416;2023-02-05T01:15:35;3.40;99.90
15178;DHT22;7689;53.612;-2.416;2023-02-05T01:18:00;3.40;99.90
15178;DHT22;7689;53.612;-2.416;2023-02-05T01:20:26;3.50;99.90
15178;DHT22;7689;53.612;-2.416;2023-02-05T01:22:51;3.50;99.90
15178;DHT22;7689;53.612;-2.416;2023-02-05T01:25:17;3.50;99.90
15178;DHT22;7689;53.612;-2.416;2023-02-05T01:27:42;3.40;99.90
15178;DHT22;7689;53.612;-2.416;2023-02-05T01:30:08;3.40;99.90
15178;DHT22;7689;53.612;-2.416;2023-02-05T01:32:36;3.30;99.90
15178;DHT22;7689;53.612;-2.416;2023-02-05T01:35:01;3.20;99.90
15178;DHT22;7689;53.612;-2.416;2023-02-05T01:37:27;3.20;99.90
15178;DHT22;7689;53.612;-2.416;2023-02-05T01:39:52;3.10;99.90
15178;DHT22;7689;53.612;-2.416;2023-02-05T01:42:19;3.10;99.90
15178;DHT22;7689;53.612;-2.416;2023-02-05T01:45:39;3.10;99.90
15178;DHT22;7689;53.612;-2.416;2023-02-05T01:47:31;3.00;99.90
15178;DHT22;7689;53.612;-2.416;2023-02-05T01:49:56;3.00;99.90
15178;DHT22;7689;53.612;-2.416;2023-02-05T01:52:22;3.00;99.90
15178;DHT22;7689;53.612;-2.416;2023-02-05T01:54:48;2.90;99.90
15178;DHT22;7689;53.612;-2.416;2023-02-05T01:57:18;2.90;99.90
15178;DHT22;7689;53.612;-2.416;2023-02-05T01:59:45;3.00;99.90
15178;DHT22;7689;53.612;-2.416;2023-02-05T02:02:10;3.10;99.90
15178;DHT22;7689;53.612;-2.416;2023-02-05T02:04:38;2.70;99.90
15178;DHT22;7689;53.612;-2.416;2023-02-05T02:07:04;3.00;99.90
15178;DHT22;7689;53.612;-2.416;2023-02-05T02:09:29;3.10;99.90
15178;DHT22;7689;53.612;-2.416;2023-02-05T02:11:55;3.10;99.90
15178;DHT22;7689;53.612;-2.416;2023-02-05T02:14:22;3.10;99.90
15178;DHT22;7689;53.612;-2.416;2023-02-05T02:16:48;3.10;99.90
15178;DHT22;7689;53.612;-2.416;2023-02-05T02:19:17;3.00;99.90
15178;DHT22;7689;53.612;-2.416;2023-02-05T02:24:40;3.10;99.90
15178;DHT22;7689;53.612;-2.416;2023-02-05T02:27:15;3.10;99.90
15178;DHT22;7689;53.612;-2.416;2023-02-05T02:32:31;2.90;99.90
15178;DHT22;7689;53.612;-2.416;2023-02-05T02:35:12;2.90;99.90
15178;DHT22;7689;53.612;-2.416;2023-02-05T02:37:44;2.80;99.90
15178;DHT22;7689;53.612;-2.416;2023-02-05T02:40:11;2.80;99.90
15178;DHT22;7689;53.612;-2.416;2023-02-05T02:42:40;2.80;99.90
15178;DHT22;7689;53.612;-2.416;2023-02-05T02:45:07;2.80;99.90
15178;DHT22;7689;53.612;-2.416;2023-02-05T02:47:37;2.80;99.90
15178;DHT22;7689;53.612;-2.416;2023-02-05T02:50:09;2.80;99.90
15178;DHT22;7689;53.612;-2.416;2023-02-05T02:52:37;2.80;99.90
15178;DHT22;7689;53.612;-2.416;2023-02-05T02:55:04;2.90;99.90
15178;DHT22;7689;53.612;-2.416;2023-02-05T02:57:32;2.90;99.90
15178;DHT22;7689;53.612;-2.416;2023-02-05T02:59:59;3.00;99.90
15178;DHT22;7689;53.612;-2.416;2023-02-05T03:04:54;2.90;99.90
15178;DHT22;7689;53.612;-2.416;2023-02-05T03:12:14;3.00;99.90
15178;DHT22;7689;53.612;-2.416;2023-02-05T03:14:40;3.00;99.90
15178;DHT22;7689;53.612;-2.416;2023-02-05T03:17:06;3.00;99.90
15178;DHT22;7689;53.612;-2.416;2023-02-05T03:19:31;3.00;99.90
15178;DHT22;7689;53.612;-2.416;2023-02-05T03:22:01;2.90;99.90
15178;DHT22;7689;53.612;-2.416;2023-02-05T03:24:29;2.70;99.90
15178;DHT22;7689;53.612;-2.416;2023-02-05T03:26:54;2.50;99.90
15178;DHT22;7689;53.612;-2.416;2023-02-05T03:29:24;2.30;99.90
15178;DHT22;7689;53.612;-2.416;2023-02-05T03:36:59;2.00;99.90
15178;DHT22;7689;53.612;-2.416;2023-02-05T03:44:47;1.90;99.90
15178;DHT22;7689;53.612;-2.416;2023-02-05T03:50:31;2.00;99.90
15178;DHT22;7689;53.612;-2.416;2023-02-05T03:52:40;2.00;99.90
15178;DHT22;7689;53.612;-2.416;2023-02-05T03:55:14;2.10;99.90
15178;DHT22;7689;53.612;-2.416;2023-02-05T03:57:59;2.20;99.90
15178;DHT22;7689;53.612;-2.416;2023-02-05T04:00:26;2.20;99.90
15178;DHT22;7689;53.612;-2.416;2023-02-05T04:02:52;2.30;99.90
15178;DHT22;7689;53.612;-2.416;2023-02-05T04:05:18;2.20;99.90
15178;DHT22;7689;53.612;-2.416;2023-02-05T04:07:47;2.20;99.90
15178;DHT22;7689;53.612;-2.416;2023-02-05T04:10:13;2.10;99.90
15178;DHT22;7689;53.612;-2.416;2023-02-05T04:12:38;2.00;99.90
15178;DHT22;7689;53.612;-2.416;2023-02-05T04:15:04;2.00;99.90
15178;DHT22;7689;53.612;-2.416;2023-02-05T04:17:31;2.10;99.90
15178;DHT22;7689;53.612;-2.416;2023-02-05T04:19:57;2.00;99.90
15178;DHT22;7689;53.612;-2.416;2023-02-05T04:22:22;1.90;99.90
15178;DHT22;7689;53.612;-2.416;2023-02-05T04:24:48;1.90;99.90
15178;DHT22;7689;53.612;-2.416;2023-02-05T04:27:13;1.90;99.90
15178;DHT22;7689;53.612;-2.416;2023-02-05T04:29:39;2.00;99.90
15178;DHT22;7689;53.612;-2.416;2023-02-05T04:32:04;1.90;99.90
15178;DHT22;7689;53.612;-2.416;2023-02-05T04:34:30;1.80;99.90
15178;DHT22;7689;53.612;-2.416;2023-02-05T04:36:55;1.80;99.90
15178;DHT22;7689;53.612;-2.416;2023-02-05T04:39:21;1.80;99.90
15178;DHT22;7689;53.612;-2.416;2023-02-05T04:41:46;1.90;99.90
15178;DHT22;7689;53.612;-2.416;2023-02-05T04:44:12;2.00;99.90
15178;DHT22;7689;53.612;-2.416;2023-02-05T04:46:37;2.10;99.90
15178;DHT22;7689;53.612;-2.416;2023-02-05T04:49:03;2.10;99.90
15178;DHT22;7689;53.612;-2.416;2023-02-05T04:51:28;2.20;99.90
15178;DHT22;7689;53.612;-2.416;2023-02-05T04:53:54;2.30;99.90
15178;DHT22;7689;53.612;-2.416;2023-02-05T04:56:19;2.00;99.90
15178;DHT22;7689;53.612;-2.416;2023-02-05T04:58:45;1.70;99.90
15178;DHT22;7689;53.612;-2.416;2023-02-05T05:01:14;1.50;99.90
15178;DHT22;7689;53.612;-2.416;2023-02-05T05:03:40;1.40;99.90
15178;DHT22;7689;53.612;-2.416;2023-02-05T05:06:06;1.80;99.90
15178;DHT22;7689;53.612;-2.416;2023-02-05T05:08:31;1.30;99.90
15178;DHT22;7689;53.612;-2.416;2023-02-05T05:10:57;1.30;99.90
15178;DHT22;7689;53.612;-2.416;2023-02-05T05:13:23;1.40;99.90
15178;DHT22;7689;53.612;-2.416;2023-02-05T05:15:55;1.40;99.90
15178;DHT22;7689;53.612;-2.416;2023-02-05T05:18:20;1.50;99.90
15178;DHT22;7689;53.612;-2.416;2023-02-05T05:20:46;1.50;99.90
15178;DHT22;7689;53.612;-2.416;2023-02-05T05:23:11;1.50;99.90
15178;DHT22;7689;53.612;-2.416;2023-02-05T05:25:41;1.60;99.90
15178;DHT22;7689;53.612;-2.416;2023-02-05T05:28:06;1.70;99.90
15178;DHT22;7689;53.612;-2.416;2023-02-05T05:30:32;1.60;99.90
15178;DHT22;7689;53.612;-2.416;2023-02-05T05:32:57;1.70;99.90
15178;DHT22;7689;53.612;-2.416;2023-02-05T05:35:23;1.60;99.90
15178;DHT22;7689;53.612;-2.416;2023-02-05T05:37:48;1.30;99.90
15178;DHT22;7689;53.612;-2.416;2023-02-05T05:40:14;1.20;99.90
15178;DHT22;7689;53.612;-2.416;2023-02-05T05:42:58;1.10;99.90
15178;DHT22;7689;53.612;-2.416;2023-02-05T05:45:42;1.10;99.90
15178;DHT22;7689;53.612;-2.416;2023-02-05T05:48:08;1.10;99.90
15178;DHT22;7689;53.612;-2.416;2023-02-05T05:50:33;1.30;99.90
15178;DHT22;7689;53.612;-2.416;2023-02-05T05:52:59;1.00;99.90
15178;DHT22;7689;53.612;-2.416;2023-02-05T05:55:24;1.00;99.90
15178;DHT22;7689;53.612;-2.416;2023-02-05T05:57:50;1.00;99.90
15178;DHT22;7689;53.612;-2.416;2023-02-05T06:00:15;1.10;99.90
15178;DHT22;7689;53.612;-2.416;2023-02-05T06:02:41;1.20;99.90
15178;DHT22;7689;53.612;-2.416;2023-02-05T06:05:09;1.30;99.90
15178;DHT22;7689;53.612;-2.416;2023-02-05T06:07:34;1.40;99.90
15178;DHT22;7689;53.612;-2.416;2023-02-05T06:10:00;1.50;99.90
15178;DHT22;7689;53.612;-2.416;2023-02-05T06:12:26;1.40;99.90
15178;DHT22;7689;53.612;-2.416;2023-02-05T06:14:51;1.40;99.90
15178;DHT22;7689;53.612;-2.416;2023-02-05T06:17:17;1.50;99.90
15178;DHT22;7689;53.612;-2.416;2023-02-05T06:19:42;1.70;99.90
15178;DHT22;7689;53.612;-2.416;2023-02-05T06:22:08;1.80;99.90
15178;DHT22;7689;53.612;-2.416;2023-02-05T06:24:33;1.90;99.90
15178;DHT22;7689;53.612;-2.416;2023-02-05T06:26:59;2.00;99.90
15178;DHT22;7689;53.612;-2.416;2023-02-05T06:29:24;2.00;99.90
15178;DHT22;7689;53.612;-2.416;2023-02-05T06:31:50;2.10;99.90
15178;DHT22;7689;53.612;-2.416;2023-02-05T06:34:15;2.10;99.90
15178;DHT22;7689;53.612;-2.416;2023-02-05T06:36:41;2.00;99.90
15178;DHT22;7689;53.612;-2.416;2023-02-05T06:39:06;1.80;99.90
15178;DHT22;7689;53.612;-2.416;2023-02-05T06:41:32;1.70;99.90
15178;DHT22;7689;53.612;-2.416;2023-02-05T06:43:57;1.70;99.90
15178;DHT22;7689;53.612;-2.416;2023-02-05T06:46:23;1.60;99.90
15178;DHT22;7689;53.612;-2.416;2023-02-05T06:48:48;1.50;99.90
15178;DHT22;7689;53.612;-2.416;2023-02-05T06:51:14;1.30;99.90
15178;DHT22;7689;53.612;-2.416;2023-02-05T06:53:39;1.00;99.90
15178;DHT22;7689;53.612;-2.416;2023-02-05T06:56:05;1.20;99.90
15178;DHT22;7689;53.612;-2.416;2023-02-05T06:58:31;1.10;99.90
15178;DHT22;7689;53.612;-2.416;2023-02-05T07:00:56;1.00;99.90
15178;DHT22;7689;53.612;-2.416;2023-02-05T07:03:22;1.00;99.90
15178;DHT22;7689;53.612;-2.416;2023-02-05T07:05:47;0.80;99.90
15178;DHT22;7689;53.612;-2.416;2023-02-05T07:08:12;0.50;99.90
15178;DHT22;7689;53.612;-2.416;2023-02-05T07:10:38;0.90;99.90
15178;DHT22;7689;53.612;-2.416;2023-02-05T07:13:03;0.90;99.90
15178;DHT22;7689;53.612;-2.416;2023-02-05T07:15:29;1.00;99.90
15178;DHT22;7689;53.612;-2.416;2023-02-05T07:17:54;1.10;99.90
15178;DHT22;7689;53.612;-2.416;2023-02-05T07:20:20;1.20;99.90
15178;DHT22;7689;53.612;-2.416;2023-02-05T07:22:47;1.10;99.90
15178;DHT22;7689;53.612;-2.416;2023-02-05T07:25:12;1.00;99.90
15178;DHT22;7689;53.612;-2.416;2023-02-05T07:27:38;1.00;99.90
15178;DHT22;7689;53.612;-2.416;2023-02-05T07:30:04;0.80;99.90
15178;DHT22;7689;53.612;-2.416;2023-02-05T07:32:29;0.60;99.90
15178;DHT22;7689;53.612;-2.416;2023-02-05T07:34:55;0.60;99.90
15178;DHT22;7689;53.612;-2.416;2023-02-05T07:37:20;0.60;99.90
15178;DHT22;7689;53.612;-2.416;2023-02-05T07:39:46;0.70;99.90
15178;DHT22;7689;53.612;-2.416;2023-02-05T07:42:11;0.70;99.90
15178;DHT22;7689;53.612;-2.416;2023-02-05T07:44:37;0.90;99.90
15178;DHT22;7689;53.612;-2.416;2023-02-05T07:47:02;0.80;99.90
15178;DHT22;7689;53.612;-2.416;2023-02-05T07:49:28;0.90;99.90
15178;DHT22;7689;53.612;-2.416;2023-02-05T07:51:53;0.90;99.90
15178;DHT22;7689;53.612;-2.416;2023-02-05T07:54:19;1.00;99.90
15178;DHT22;7689;53.612;-2.416;2023-02-05T07:56:44;0.90;99.90
15178;DHT22;7689;53.612;-2.416;2023-02-05T07:59:10;0.90;99.90
15178;DHT22;7689;53.612;-2.416;2023-02-05T08:01:36;0.90;99.90
15178;DHT22;7689;53.612;-2.416;2023-02-05T08:04:01;1.20;99.90
15178;DHT22;7689;53.612;-2.416;2023-02-05T08:06:27;1.30;99.90
15178;DHT22;7689;53.612;-2.416;2023-02-05T08:08:52;1.60;99.90
15178;DHT22;7689;53.612;-2.416;2023-02-05T08:11:19;1.60;99.90
15178;DHT22;7689;53.612;-2.416;2023-02-05T08:13:45;2.00;99.90
15178;DHT22;7689;53.612;-2.416;2023-02-05T08:16:11;1.90;99.90
15178;DHT22;7689;53.612;-2.416;2023-02-05T08:18:37;1.60;99.90
15178;DHT22;7689;53.612;-2.416;2023-02-05T08:21:02;1.70;99.90
15178;DHT22;7689;53.612;-2.416;2023-02-05T08:23:28;1.70;99.90
15178;DHT22;7689;53.612;-2.416;2023-02-05T08:25:54;1.90;99.90
15178;DHT22;7689;53.612;-2.416;2023-02-05T08:28:20;2.20;99.90
15178;DHT22;7689;53.612;-2.416;2023-02-05T08:30:46;2.40;99.90
15178;DHT22;7689;53.612;-2.416;2023-02-05T08:33:11;2.80;99.90
15178;DHT22;7689;53.612;-2.416;2023-02-05T08:35:37;3.20;99.90
15178;DHT22;7689;53.612;-2.416;2023-02-05T08:38:02;3.50;99.90
15178;DHT22;7689;53.612;-2.416;2023-02-05T08:40:28;3.70;99.90
15178;DHT22;7689;53.612;-2.416;2023-02-05T08:42:53;3.80;99.90
15178;DHT22;7689;53.612;-2.416;2023-02-05T08:45:21;3.90;99.90
15178;DHT22;7689;53.612;-2.416;2023-02-05T08:47:47;4.00;99.90
15178;DHT22;7689;53.612;-2.416;2023-02-05T08:50:12;3.80;99.90
15178;DHT22;7689;53.612;-2.416;2023-02-05T08:52:39;3.90;99.90
15178;DHT22;7689;53.612;-2.416;2023-02-05T08:55:05;3.80;99.90
15178;DHT22;7689;53.612;-2.416;2023-02-05T08:57:30;3.60;99.90
15178;DHT22;7689;53.612;-2.416;2023-02-05T08:59:56;3.60;99.90
15178;DHT22;7689;53.612;-2.416;2023-02-05T09:02:21;3.50;99.90
15178;DHT22;7689;53.612;-2.416;2023-02-05T09:04:47;3.40;99.90
15178;DHT22;7689;53.612;-2.416;2023-02-05T09:07:13;3.30;99.90
15178;DHT22;7689;53.612;-2.416;2023-02-05T09:09:38;3.10;99.90
15178;DHT22;7689;53.612;-2.416;2023-02-05T09:12:04;3.00;99.90
15178;DHT22;7689;53.612;-2.416;2023-02-05T09:14:30;2.90;99.90
15178;DHT22;7689;53.612;-2.416;2023-02-05T09:17:01;2.90;99.90
15178;DHT22;7689;53.612;-2.416;2023-02-05T09:19:27;2.80;99.90
15178;DHT22;7689;53.612;-2.416;2023-02-05T09:21:52;2.70;99.90
15178;DHT22;7689;53.612;-2.416;2023-02-05T09:24:18;2.50;99.90
15178;DHT22;7689;53.612;-2.416;2023-02-05T09:26:43;2.40;99.90
15178;DHT22;7689;53.612;-2.416;2023-02-05T09:29:09;2.40;99.90
15178;DHT22;7689;53.612;-2.416;2023-02-05T09:31:34;2.60;99.90
15178;DHT22;7689;53.612;-2.416;2023-02-05T09:34:00;2.60;99.90
15178;DHT22;7689;53.612;-2.416;2023-02-05T09:36:26;2.60;99.90
15178;DHT22;7689;53.612;-2.416;2023-02-05T09:38:51;2.40;99.90
15178;DHT22;7689;53.612;-2.416;2023-02-05T09:41:43;2.30;99.90
15178;DHT22;7689;53.612;-2.416;2023-02-05T09:44:15;2.40;99.90
15178;DHT22;7689;53.612;-2.416;2023-02-05T09:52:36;3.00;99.90
15178;DHT22;7689;53.612;-2.416;2023-02-05T09:55:09;3.10;99.90
15178;DHT22;7689;53.612;-2.416;2023-02-05T09:57:39;3.10;99.90
15178;DHT22;7689;53.612;-2.416;2023-02-05T10:00:17;3.30;99.90
15178;DHT22;7689;53.612;-2.416;2023-02-05T10:02:52;3.40;99.90
15178;DHT22;7689;53.612;-2.416;2023-02-05T10:05:20;3.30;99.90
15178;DHT22;7689;53.612;-2.416;2023-02-05T10:07:53;3.50;99.90
15178;DHT22;7689;53.612;-2.416;2023-02-05T10:20:36;3.40;99.90
15178;DHT22;7689;53.612;-2.416;2023-02-05T10:31:33;4.10;99.90
15178;DHT22;7689;53.612;-2.416;2023-02-05T10:36:04;4.20;99.90
15178;DHT22;7689;53.612;-2.416;2023-02-05T10:38:35;4.20;99.90
15178;DHT22;7689;53.612;-2.416;2023-02-05T10:41:05;4.30;99.90
15178;DHT22;7689;53.612;-2.416;2023-02-05T10:43:36;4.30;99.90
15178;DHT22;7689;53.612;-2.416;2023-02-05T10:46:03;4.30;99.90
15178;DHT22;7689;53.612;-2.416;2023-02-05T10:48:36;4.50;99.90
15178;DHT22;7689;53.612;-2.416;2023-02-05T10:51:04;4.60;99.90
15178;DHT22;7689;53.612;-2.416;2023-02-05T10:53:30;4.60;99.90
15178;DHT22;7689;53.612;-2.416;2023-02-05T10:55:56;4.50;99.90
15178;DHT22;7689;53.612;-2.416;2023-02-05T11:01:00;4.40;99.90
15178;DHT22;7689;53.612;-2.416;2023-02-05T11:03:27;4.30;99.90
15178;DHT22;7689;53.612;-2.416;2023-02-05T11:05:53;4.40;99.90
15178;DHT22;7689;53.612;-2.416;2023-02-05T11:11:00;4.50;99.90
15178;DHT22;7689;53.612;-2.416;2023-02-05T11:13:25;4.60;99.90
15178;DHT22;7689;53.612;-2.416;2023-02-05T11:15:53;4.60;99.90
15178;DHT22;7689;53.612;-2.416;2023-02-05T11:18:23;4.70;99.90
15178;DHT22;7689;53.612;-2.416;2023-02-05T11:21:03;4.80;99.90
15178;DHT22;7689;53.612;-2.416;2023-02-05T11:23:29;5.00;99.90
15178;DHT22;7689;53.612;-2.416;2023-02-05T11:25:57;5.00;99.90
15178;DHT22;7689;53.612;-2.416;2023-02-05T11:28:27;5.10;99.90
15178;DHT22;7689;53.612;-2.416;2023-02-05T11:30:53;5.20;99.90
15178;DHT22;7689;53.612;-2.416;2023-02-05T11:36:05;5.30;99.90
15178;DHT22;7689;53.612;-2.416;2023-02-05T11:41:07;5.30;99.90
15178;DHT22;7689;53.612;-2.416;2023-02-05T11:43:39;5.20;99.90
15178;DHT22;7689;53.612;-2.416;2023-02-05T11:46:09;5.30;99.90
15178;DHT22;7689;53.612;-2.416;2023-02-05T11:48:39;5.40;99.90
15178;DHT22;7689;53.612;-2.416;2023-02-05T11:51:07;5.50;99.90
15178;DHT22;7689;53.612;-2.416;2023-02-05T11:53:33;5.60;99.90
15178;DHT22;7689;53.612;-2.416;2023-02-05T11:56:01;5.60;99.90
15178;DHT22;7689;53.612;-2.416;2023-02-05T11:58:28;5.60;99.90
15178;DHT22;7689;53.612;-2.416;2023-02-05T12:00:56;5.60;99.90
15178;DHT22;7689;53.612;-2.416;2023-02-05T12:03:26;5.60;99.90
15178;DHT22;7689;53.612;-2.416;2023-02-05T12:08:45;5.70;99.90
15178;DHT22;7689;53.612;-2.416;2023-02-05T12:16:13;6.20;99.90
15178;DHT22;7689;53.612;-2.416;2023-02-05T12:18:46;6.30;99.90
15178;DHT22;7689;53.612;-2.416;2023-02-05T12:21:26;6.30;99.90
15178;DHT22;7689;53.612;-2.416;2023-02-05T12:26:32;6.50;99.90
15178;DHT22;7689;53.612;-2.416;2023-02-05T12:39:21;6.80;99.90
15178;DHT22;7689;53.612;-2.416;2023-02-05T12:42:09;6.70;99.90
15178;DHT22;7689;53.612;-2.416;2023-02-05T12:52:30;6.50;99.90
15178;DHT22;7689;53.612;-2.416;2023-02-05T12:55:15;6.60;99.90
15178;DHT22;7689;53.612;-2.416;2023-02-05T12:57:45;6.70;99.90
15178;DHT22;7689;53.612;-2.416;2023-02-05T13:00:23;6.90;99.90
15178;DHT22;7689;53.612;-2.416;2023-02-05T13:13:09;7.20;99.90
15178;DHT22;7689;53.612;-2.416;2023-02-05T13:15:39;7.40;99.90
15178;DHT22;7689;53.612;-2.416;2023-02-05T13:18:10;7.20;99.90
15178;DHT22;7689;53.612;-2.416;2023-02-05T13:20:38;7.20;99.90
15178;DHT22;7689;53.612;-2.416;2023-02-05T13:23:23;7.20;99.90
15178;DHT22;7689;53.612;-2.416;2023-02-05T13:26:09;7.30;99.90
15178;DHT22;7689;53.612;-2.416;2023-02-05T13:28:55;7.70;99.90
15178;DHT22;7689;53.612;-2.416;2023-02-05T13:34:16;6.70;99.90
15178;DHT22;7689;53.612;-2.416;2023-02-05T13:36:47;7.40;99.90
15178;DHT22;7689;53.612;-2.416;2023-02-05T13:39:28;7.40;99.90
15178;DHT22;7689;53.612;-2.416;2023-02-05T13:58:04;7.60;99.90
15178;DHT22;7689;53.612;-2.416;2023-02-05T14:00:32;7.60;99.90
15178;DHT22;7689;53.612;-2.416;2023-02-05T14:02:58;7.60;99.90
15178;DHT22;7689;53.612;-2.416;2023-02-05T14:05:40;7.70;99.90
15178;DHT22;7689;53.612;-2.416;2023-02-05T14:08:17;7.60;99.90
15178;DHT22;7689;53.612;-2.416;2023-02-05T14:10:44;7.60;99.90
15178;DHT22;7689;53.612;-2.416;2023-02-05T14:13:20;7.30;99.90
15178;DHT22;7689;53.612;-2.416;2023-02-05T14:15:46;7.20;99.90
15178;DHT22;7689;53.612;-2.416;2023-02-05T14:18:43;7.00;99.90
15178;DHT22;7689;53.612;-2.416;2023-02-05T14:20:58;6.90;99.90
15178;DHT22;7689;53.612;-2.416;2023-02-05T14:24:24;6.80;99.90
15178;DHT22;7689;53.612;-2.416;2023-02-05T14:26:09;6.90;99.90
15178;DHT22;7689;53.612;-2.416;2023-02-05T14:28:35;7.00;99.90
15178;DHT22;7689;53.612;-2.416;2023-02-05T14:31:02;7.10;99.90
15178;DHT22;7689;53.612;-2.416;2023-02-05T14:33:32;7.20;99.90
15178;DHT22;7689;53.612;-2.416;2023-02-05T14:38:55;7.10;99.90
15178;DHT22;7689;53.612;-2.416;2023-02-05T14:41:22;6.90;99.90
15178;DHT22;7689;53.612;-2.416;2023-02-05T14:43:56;6.60;99.90
15178;DHT22;7689;53.612;-2.416;2023-02-05T14:46:30;6.60;99.90
15178;DHT22;7689;53.612;-2.416;2023-02-05T14:48:56;6.60;99.90
15178;DHT22;7689;53.612;-2.416;2023-02-05T14:54:00;6.90;99.90
15178;DHT22;7689;53.612;-2.416;2023-02-05T14:56:46;7.00;99.90
15178;DHT22;7689;53.612;-2.416;2023-02-05T14:59:19;7.00;99.90
15178;DHT22;7689;53.612;-2.416;2023-02-05T15:01:46;7.10;99.90
15178;DHT22;7689;53.612;-2.416;2023-02-05T15:04:34;7.30;99.90
15178;DHT22;7689;53.612;-2.416;2023-02-05T15:07:05;7.40;99.90
15178;DHT22;7689;53.612;-2.416;2023-02-05T15:09:36;7.40;99.90
15178;DHT22;7689;53.612;-2.416;2023-02-05T15:14:49;7.50;99.90
15178;DHT22;7689;53.612;-2.416;2023-02-05T15:22:08;7.30;99.90
15178;DHT22;7689;53.612;-2.416;2023-02-05T15:24:38;7.20;99.90
15178;DHT22;7689;53.612;-2.416;2023-02-05T15:27:06;7.20;99.90
15178;DHT22;7689;53.612;-2.416;2023-02-05T15:29:44;7.30;99.90
15178;DHT22;7689;53.612;-2.416;2023-02-05T15:32:16;7.20;99.90
15178;DHT22;7689;53.612;-2.416;2023-02-05T15:37:16;7.00;99.90
15178;DHT22;7689;53.612;-2.416;2023-02-05T15:42:09;8.20;99.90
15178;DHT22;7689;53.612;-2.416;2023-02-05T15:44:38;6.90;99.90
15178;DHT22;7689;53.612;-2.416;2023-02-05T15:47:04;6.70;99.90
15178;DHT22;7689;53.612;-2.416;2023-02-05T15:49:39;6.80;99.90
15178;DHT22;7689;53.612;-2.416;2023-02-05T15:52:06;6.80;99.90
15178;DHT22;7689;53.612;-2.416;2023-02-05T15:54:32;6.80;99.90
15178;DHT22;7689;53.612;-2.416;2023-02-05T15:56:58;6.80;99.90
15178;DHT22;7689;53.612;-2.416;2023-02-05T15:59:25;6.90;99.90
15178;DHT22;7689;53.612;-2.416;2023-02-05T16:01:59;5.70;99.90
15178;DHT22;7689;53.612;-2.416;2023-02-05T16:06:57;6.80;99.90
15178;DHT22;7689;53.612;-2.416;2023-02-05T16:09:24;6.80;99.90
15178;DHT22;7689;53.612;-2.416;2023-02-05T16:11:50;6.80;99.90
15178;DHT22;7689;53.612;-2.416;2023-02-05T16:14:17;6.80;99.90
15178;DHT22;7689;53.612;-2.416;2023-02-05T16:19:18;6.80;99.90
15178;DHT22;7689;53.612;-2.416;2023-02-05T16:21:53;6.80;99.90
15178;DHT22;7689;53.612;-2.416;2023-02-05T16:24:23;6.80;99.90
15178;DHT22;7689;53.612;-2.416;2023-02-05T16:26:53;6.80;99.90
15178;DHT22;7689;53.612;-2.416;2023-02-05T16:29:22;6.80;99.90
15178;DHT22;7689;53.612;-2.416;2023-02-05T16:31:54;6.80;99.90
15178;DHT22;7689;53.612;-2.416;2023-02-05T16:34:20;6.80;99.90
15178;DHT22;7689;53.612;-2.416;2023-02-05T16:36:46;6.70;99.90
15178;DHT22;7689;53.612;-2.416;2023-02-05T16:39:23;6.70;99.90
15178;DHT22;7689;53.612;-2.416;2023-02-05T16:42:05;6.70;99.90
15178;DHT22;7689;53.612;-2.416;2023-02-05T16:44:32;6.70;99.90
15178;DHT22;7689;53.612;-2.416;2023-02-05T16:49:36;6.70;99.90
15178;DHT22;7689;53.612;-2.416;2023-02-05T16:52:02;6.60;99.90
15178;DHT22;7689;53.612;-2.416;2023-02-05T16:54:30;6.60;99.90
15178;DHT22;7689;53.612;-2.416;2023-02-05T16:57:02;6.50;99.90
15178;DHT22;7689;53.612;-2.416;2023-02-05T16:59:33;6.40;99.90
15178;DHT22;7689;53.612;-2.416;2023-02-05T17:01:59;6.30;99.90
15178;DHT22;7689;53.612;-2.416;2023-02-05T17:04:30;6.30;99.90
15178;DHT22;7689;53.612;-2.416;2023-02-05T17:06:56;6.30;99.90
15178;DHT22;7689;53.612;-2.416;2023-02-05T17:11:54;6.20;99.90
15178;DHT22;7689;53.612;-2.416;2023-02-05T17:14:40;6.20;99.90
15178;DHT22;7689;53.612;-2.416;2023-02-05T17:17:16;6.10;99.90
15178;DHT22;7689;53.612;-2.416;2023-02-05T17:19:42;6.10;99.90
15178;DHT22;7689;53.612;-2.416;2023-02-05T17:24:40;6.00;99.90
15178;DHT22;7689;53.612;-2.416;2023-02-05T17:27:07;5.90;99.90
15178;DHT22;7689;53.612;-2.416;2023-02-05T17:29:36;5.90;99.90
15178;DHT22;7689;53.612;-2.416;2023-02-05T17:32:02;5.80;99.90
15178;DHT22;7689;53.612;-2.416;2023-02-05T17:34:28;5.70;99.90
15178;DHT22;7689;53.612;-2.416;2023-02-05T17:36:53;5.60;99.90
15178;DHT22;7689;53.612;-2.416;2023-02-05T17:39:19;5.70;99.90
15178;DHT22;7689;53.612;-2.416;2023-02-05T17:41:44;5.70;99.90
15178;DHT22;7689;53.612;-2.416;2023-02-05T17:44:29;5.70;99.90
15178;DHT22;7689;53.612;-2.416;2023-02-05T17:46:56;5.50;99.90
15178;DHT22;7689;53.612;-2.416;2023-02-05T17:49:21;5.50;99.90
15178;DHT22;7689;53.612;-2.416;2023-02-05T17:51:47;5.50;99.90
15178;DHT22;7689;53.612;-2.416;2023-02-05T17:54:13;5.40;99.90
15178;DHT22;7689;53.612;-2.416;2023-02-05T17:56:39;5.40;99.90
15178;DHT22;7689;53.612;-2.416;2023-02-05T17:59:09;5.30;99.90
15178;DHT22;7689;53.612;-2.416;2023-02-05T18:01:35;5.10;99.90
15178;DHT22;7689;53.612;-2.416;2023-02-05T18:04:01;5.20;99.90
15178;DHT22;7689;53.612;-2.416;2023-02-05T18:06:26;5.10;99.90
15178;DHT22;7689;53.612;-2.416;2023-02-05T18:08:52;5.10;99.90
15178;DHT22;7689;53.612;-2.416;2023-02-05T18:11:17;5.00;99.90
15178;DHT22;7689;53.612;-2.416;2023-02-05T18:13:43;5.00;99.90
15178;DHT22;7689;53.612;-2.416;2023-02-05T18:16:08;4.90;99.90
15178;DHT22;7689;53.612;-2.416;2023-02-05T18:18:34;4.80;99.90
15178;DHT22;7689;53.612;-2.416;2023-02-05T18:21:00;4.80;99.90